sensor_id;sensor_type;location;lat;lon;timestamp;P1;durP1;ratioP1;P2;durP2;ratioP2
48945;SDS011;34999;50.940;3.998;2022-08-21T00:01:51;3.60;;;2.57;;
48945;SDS011;34999;50.940;3.998;2022-08-21T00:04:20;6.23;;;2.40;;
48945;SDS011;34999;50.940;3.998;2022-08-21T00:06:55;4.83;;;2.40;;
48945;SDS011;34999;50.940;3.998;2022-08-21T00:09:23;8.50;;;2.77;;
48945;SDS011;34999;50.940;3.998;2022-08-21T00:11:51;4.50;;;2.13;;
48945;SDS011;34999;50.940;3.998;2022-08-21T00:14:20;3.77;;;2.50;;
48945;SDS011;34999;50.940;3.998;2022-08-21T00:16:48;5.00;;;2.30;;
48945;SDS011;34999;50.940;3.998;2022-08-21T00:19:17;5.73;;;2.37;;
48945;SDS011;34999;50.940;3.998;2022-08-21T00:21:48;6.13;;;2.67;;
48945;SDS011;34999;50.940;3.998;2022-08-21T00:24:17;2.80;;;2.40;;
48945;SDS011;34999;50.940;3.998;2022-08-21T00:26:45;5.50;;;2.17;;
48945;SDS011;34999;50.940;3.998;2022-08-21T00:29:15;3.97;;;2.40;;
48945;SDS011;34999;50.940;3.998;2022-08-21T00:31:44;5.40;;;2.50;;
48945;SDS011;34999;50.940;3.998;2022-08-21T00:34:12;4.70;;;2.13;;
48945;SDS011;34999;50.940;3.998;2022-08-21T00:36:41;3.20;;;2.17;;
48945;SDS011;34999;50.940;3.998;2022-08-21T00:39:11;6.70;;;2.63;;
48945;SDS011;34999;50.940;3.998;2022-08-21T00:41:39;5.33;;;2.30;;
48945;SDS011;34999;50.940;3.998;2022-08-21T00:44:08;6.07;;;2.33;;
48945;SDS011;34999;50.940;3.998;2022-08-21T00:46:39;6.57;;;2.30;;
48945;SDS011;34999;50.940;3.998;2022-08-21T00:49:09;6.17;;;2.67;;
48945;SDS011;34999;50.940;3.998;2022-08-21T00:51:40;2.77;;;2.20;;
48945;SDS011;34999;50.940;3.998;2022-08-21T00:54:14;4.07;;;2.33;;
48945;SDS011;34999;50.940;3.998;2022-08-21T00:56:45;4.67;;;2.30;;
48945;SDS011;34999;50.940;3.998;2022-08-21T00:59:17;4.23;;;2.30;;
48945;SDS011;34999;50.940;3.998;2022-08-21T01:06:30;8.33;;;2.70;;
48945;SDS011;34999;50.940;3.998;2022-08-21T01:08:59;4.20;;;2.50;;
48945;SDS011;34999;50.940;3.998;2022-08-21T01:11:28;2.40;;;2.20;;
48945;SDS011;34999;50.940;3.998;2022-08-21T01:13:57;4.67;;;2.20;;
48945;SDS011;34999;50.940;3.998;2022-08-21T01:16:26;5.27;;;3.00;;
48945;SDS011;34999;50.940;3.998;2022-08-21T01:18:55;5.57;;;2.50;;
48945;SDS011;34999;50.940;3.998;2022-08-21T01:21:26;6.43;;;2.90;;
48945;SDS011;34999;50.940;3.998;2022-08-21T01:23:55;3.80;;;2.47;;
48945;SDS011;34999;50.940;3.998;2022-08-21T01:26:25;4.47;;;2.83;;
48945;SDS011;34999;50.940;3.998;2022-08-21T01:29:02;4.47;;;2.23;;
48945;SDS011;34999;50.940;3.998;2022-08-21T01:31:36;4.97;;;2.60;;
48945;SDS011;34999;50.940;3.998;2022-08-21T01:34:04;6.50;;;2.70;;
48945;SDS011;34999;50.940;3.998;2022-08-21T01:36:34;7.90;;;3.20;;
48945;SDS011;34999;50.940;3.998;2022-08-21T01:39:03;5.00;;;2.70;;
48945;SDS011;34999;50.940;3.998;2022-08-21T01:41:33;4.33;;;2.77;;
48945;SDS011;34999;50.940;3.998;2022-08-21T01:44:01;3.37;;;2.37;;
48945;SDS011;34999;50.940;3.998;2022-08-21T01:46:30;5.13;;;2.80;;
48945;SDS011;34999;50.940;3.998;2022-08-21T01:48:58;7.37;;;2.97;;
48945;SDS011;34999;50.940;3.998;2022-08-21T01:51:27;5.10;;;2.50;;
48945;SDS011;34999;50.940;3.998;2022-08-21T01:53:56;3.90;;;2.27;;
48945;SDS011;34999;50.940;3.998;2022-08-21T01:56:25;5.50;;;2.57;;
48945;SDS011;34999;50.940;3.998;2022-08-21T01:58:54;5.80;;;2.63;;
48945;SDS011;34999;50.940;3.998;2022-08-21T02:06:01;5.17;;;2.80;;
48945;SDS011;34999;50.940;3.998;2022-08-21T02:08:30;3.63;;;2.63;;
48945;SDS011;34999;50.940;3.998;2022-08-21T02:11:00;4.67;;;2.83;;
48945;SDS011;34999;50.940;3.998;2022-08-21T02:13:29;7.10;;;3.07;;
48945;SDS011;34999;50.940;3.998;2022-08-21T02:15:57;4.63;;;2.53;;
48945;SDS011;34999;50.940;3.998;2022-08-21T02:18:25;4.80;;;3.00;;
48945;SDS011;34999;50.940;3.998;2022-08-21T02:20:54;6.67;;;3.30;;
48945;SDS011;34999;50.940;3.998;2022-08-21T02:23:22;5.40;;;3.30;;
48945;SDS011;34999;50.940;3.998;2022-08-21T02:25:52;6.83;;;3.13;;
48945;SDS011;34999;50.940;3.998;2022-08-21T02:28:22;9.50;;;3.23;;
48945;SDS011;34999;50.940;3.998;2022-08-21T02:30:53;8.10;;;3.40;;
48945;SDS011;34999;50.940;3.998;2022-08-21T02:33:24;5.40;;;2.83;;
48945;SDS011;34999;50.940;3.998;2022-08-21T02:35:53;7.17;;;3.30;;
48945;SDS011;34999;50.940;3.998;2022-08-21T02:38:23;6.63;;;3.43;;
48945;SDS011;34999;50.940;3.998;2022-08-21T02:40:54;5.13;;;2.80;;
48945;SDS011;34999;50.940;3.998;2022-08-21T02:43:25;6.23;;;2.97;;
48945;SDS011;34999;50.940;3.998;2022-08-21T02:45:55;7.70;;;3.20;;
48945;SDS011;34999;50.940;3.998;2022-08-21T02:48:25;9.40;;;3.37;;
48945;SDS011;34999;50.940;3.998;2022-08-21T02:50:57;8.60;;;3.30;;
48945;SDS011;34999;50.940;3.998;2022-08-21T02:53:27;7.20;;;2.97;;
48945;SDS011;34999;50.940;3.998;2022-08-21T02:55:57;10.67;;;3.07;;
48945;SDS011;34999;50.940;3.998;2022-08-21T02:58:29;5.57;;;2.83;;
48945;SDS011;34999;50.940;3.998;2022-08-21T03:00:59;5.97;;;3.10;;
48945;SDS011;34999;50.940;3.998;2022-08-21T03:08:12;5.53;;;3.10;;
48945;SDS011;34999;50.940;3.998;2022-08-21T03:10:42;7.33;;;3.10;;
48945;SDS011;34999;50.940;3.998;2022-08-21T03:13:13;6.93;;;3.50;;
48945;SDS011;34999;50.940;3.998;2022-08-21T03:15:43;8.43;;;3.53;;
48945;SDS011;34999;50.940;3.998;2022-08-21T03:18:15;7.47;;;3.70;;
48945;SDS011;34999;50.940;3.998;2022-08-21T03:20:44;5.70;;;3.70;;
48945;SDS011;34999;50.940;3.998;2022-08-21T03:23:13;4.43;;;3.07;;
48945;SDS011;34999;50.940;3.998;2022-08-21T03:25:45;10.10;;;3.23;;
48945;SDS011;34999;50.940;3.998;2022-08-21T03:28:15;6.67;;;3.23;;
48945;SDS011;34999;50.940;3.998;2022-08-21T03:30:48;7.10;;;3.33;;
48945;SDS011;34999;50.940;3.998;2022-08-21T03:33:18;7.43;;;3.30;;
48945;SDS011;34999;50.940;3.998;2022-08-21T03:35:51;5.73;;;3.50;;
48945;SDS011;34999;50.940;3.998;2022-08-21T03:38:27;11.07;;;3.73;;
48945;SDS011;34999;50.940;3.998;2022-08-21T03:40:57;6.90;;;3.90;;
48945;SDS011;34999;50.940;3.998;2022-08-21T03:43:26;6.93;;;3.70;;
48945;SDS011;34999;50.940;3.998;2022-08-21T03:45:59;10.43;;;4.00;;
48945;SDS011;34999;50.940;3.998;2022-08-21T03:48:29;7.07;;;3.50;;
48945;SDS011;34999;50.940;3.998;2022-08-21T03:50:58;4.77;;;3.13;;
48945;SDS011;34999;50.940;3.998;2022-08-21T03:53:26;9.33;;;3.50;;
48945;SDS011;34999;50.940;3.998;2022-08-21T03:55:55;8.40;;;3.43;;
48945;SDS011;34999;50.940;3.998;2022-08-21T03:58:26;4.90;;;3.17;;
48945;SDS011;34999;50.940;3.998;2022-08-21T04:00:55;6.80;;;3.40;;
48945;SDS011;34999;50.940;3.998;2022-08-21T04:11:28;9.37;;;3.33;;
48945;SDS011;34999;50.940;3.998;2022-08-21T04:13:56;11.50;;;3.57;;
48945;SDS011;34999;50.940;3.998;2022-08-21T04:16:24;9.43;;;3.30;;
48945;SDS011;34999;50.940;3.998;2022-08-21T04:18:53;10.17;;;3.57;;
48945;SDS011;34999;50.940;3.998;2022-08-21T04:21:21;9.87;;;3.13;;
48945;SDS011;34999;50.940;3.998;2022-08-21T04:23:50;6.53;;;2.80;;
48945;SDS011;34999;50.940;3.998;2022-08-21T04:26:22;6.47;;;3.23;;
48945;SDS011;34999;50.940;3.998;2022-08-21T04:28:52;5.03;;;3.30;;
48945;SDS011;34999;50.940;3.998;2022-08-21T04:31:22;7.97;;;3.27;;
48945;SDS011;34999;50.940;3.998;2022-08-21T04:33:50;7.20;;;3.40;;
48945;SDS011;34999;50.940;3.998;2022-08-21T04:36:18;4.47;;;2.97;;
48945;SDS011;34999;50.940;3.998;2022-08-21T04:38:49;7.63;;;3.03;;
48945;SDS011;34999;50.940;3.998;2022-08-21T04:41:20;6.87;;;3.43;;
48945;SDS011;34999;50.940;3.998;2022-08-21T04:43:55;10.17;;;3.87;;
48945;SDS011;34999;50.940;3.998;2022-08-21T04:46:23;7.00;;;3.20;;
48945;SDS011;34999;50.940;3.998;2022-08-21T04:48:52;4.30;;;3.20;;
48945;SDS011;34999;50.940;3.998;2022-08-21T04:51:22;8.07;;;3.13;;
48945;SDS011;34999;50.940;3.998;2022-08-21T04:53:57;6.77;;;3.17;;
48945;SDS011;34999;50.940;3.998;2022-08-21T04:56:35;5.17;;;3.47;;
48945;SDS011;34999;50.940;3.998;2022-08-21T04:59:10;7.10;;;3.23;;
48945;SDS011;34999;50.940;3.998;2022-08-21T05:01:42;9.17;;;3.20;;
48945;SDS011;34999;50.940;3.998;2022-08-21T05:09:03;8.83;;;3.30;;
48945;SDS011;34999;50.940;3.998;2022-08-21T05:11:32;5.37;;;2.97;;
48945;SDS011;34999;50.940;3.998;2022-08-21T05:14:01;7.70;;;3.43;;
48945;SDS011;34999;50.940;3.998;2022-08-21T05:16:31;10.37;;;3.00;;
48945;SDS011;34999;50.940;3.998;2022-08-21T05:19:03;8.90;;;3.00;;
48945;SDS011;34999;50.940;3.998;2022-08-21T05:21:31;7.57;;;3.23;;
48945;SDS011;34999;50.940;3.998;2022-08-21T05:24:00;7.03;;;3.23;;
48945;SDS011;34999;50.940;3.998;2022-08-21T05:26:29;6.20;;;3.03;;
48945;SDS011;34999;50.940;3.998;2022-08-21T05:28:57;5.30;;;3.03;;
48945;SDS011;34999;50.940;3.998;2022-08-21T05:31:27;8.33;;;3.27;;
48945;SDS011;34999;50.940;3.998;2022-08-21T05:33:57;8.90;;;3.57;;
48945;SDS011;34999;50.940;3.998;2022-08-21T05:36:28;6.17;;;2.87;;
48945;SDS011;34999;50.940;3.998;2022-08-21T05:38:57;9.87;;;3.80;;
48945;SDS011;34999;50.940;3.998;2022-08-21T05:41:25;5.73;;;3.00;;
48945;SDS011;34999;50.940;3.998;2022-08-21T05:43:53;7.00;;;3.60;;
48945;SDS011;34999;50.940;3.998;2022-08-21T05:46:22;8.63;;;3.07;;
48945;SDS011;34999;50.940;3.998;2022-08-21T05:48:50;7.40;;;3.20;;
48945;SDS011;34999;50.940;3.998;2022-08-21T05:51:20;5.80;;;3.00;;
48945;SDS011;34999;50.940;3.998;2022-08-21T05:53:48;7.50;;;2.97;;
48945;SDS011;34999;50.940;3.998;2022-08-21T05:56:17;7.43;;;2.80;;
48945;SDS011;34999;50.940;3.998;2022-08-21T05:58:45;13.37;;;3.27;;
48945;SDS011;34999;50.940;3.998;2022-08-21T06:01:13;8.00;;;3.47;;
48945;SDS011;34999;50.940;3.998;2022-08-21T06:03:42;6.27;;;2.67;;
48945;SDS011;34999;50.940;3.998;2022-08-21T06:14:41;9.33;;;3.40;;
48945;SDS011;34999;50.940;3.998;2022-08-21T06:17:10;7.10;;;2.90;;
48945;SDS011;34999;50.940;3.998;2022-08-21T06:19:41;5.97;;;2.60;;
48945;SDS011;34999;50.940;3.998;2022-08-21T06:22:11;7.10;;;2.30;;
48945;SDS011;34999;50.940;3.998;2022-08-21T06:24:39;5.67;;;2.73;;
48945;SDS011;34999;50.940;3.998;2022-08-21T06:27:08;6.83;;;2.70;;
48945;SDS011;34999;50.940;3.998;2022-08-21T06:29:37;6.80;;;2.50;;
48945;SDS011;34999;50.940;3.998;2022-08-21T06:32:11;6.10;;;3.00;;
48945;SDS011;34999;50.940;3.998;2022-08-21T06:34:41;6.80;;;2.80;;
48945;SDS011;34999;50.940;3.998;2022-08-21T06:37:09;7.90;;;3.17;;
48945;SDS011;34999;50.940;3.998;2022-08-21T06:39:38;8.33;;;2.43;;
48945;SDS011;34999;50.940;3.998;2022-08-21T06:42:13;4.87;;;2.57;;
48945;SDS011;34999;50.940;3.998;2022-08-21T06:44:42;8.13;;;2.47;;
48945;SDS011;34999;50.940;3.998;2022-08-21T06:47:12;7.80;;;2.47;;
48945;SDS011;34999;50.940;3.998;2022-08-21T06:49:40;11.17;;;2.43;;
48945;SDS011;34999;50.940;3.998;2022-08-21T06:52:11;8.10;;;2.70;;
48945;SDS011;34999;50.940;3.998;2022-08-21T06:54:40;5.53;;;2.60;;
48945;SDS011;34999;50.940;3.998;2022-08-21T06:57:09;6.40;;;2.70;;
48945;SDS011;34999;50.940;3.998;2022-08-21T06:59:37;8.70;;;2.70;;
48945;SDS011;34999;50.940;3.998;2022-08-21T07:02:06;9.03;;;2.67;;
48945;SDS011;34999;50.940;3.998;2022-08-21T07:04:35;8.13;;;2.77;;
48945;SDS011;34999;50.940;3.998;2022-08-21T07:07:04;11.43;;;2.60;;
48945;SDS011;34999;50.940;3.998;2022-08-21T07:13:32;10.93;;;2.47;;
48945;SDS011;34999;50.940;3.998;2022-08-21T07:16:01;9.57;;;2.33;;
48945;SDS011;34999;50.940;3.998;2022-08-21T07:18:29;7.23;;;2.33;;
48945;SDS011;34999;50.940;3.998;2022-08-21T07:20:59;6.23;;;2.17;;
48945;SDS011;34999;50.940;3.998;2022-08-21T07:27:00;8.00;;;2.10;;
48945;SDS011;34999;50.940;3.998;2022-08-21T07:29:33;4.80;;;2.23;;
48945;SDS011;34999;50.940;3.998;2022-08-21T07:32:02;7.60;;;2.13;;
48945;SDS011;34999;50.940;3.998;2022-08-21T07:34:31;5.13;;;2.53;;
48945;SDS011;34999;50.940;3.998;2022-08-21T07:37:00;8.73;;;1.90;;
48945;SDS011;34999;50.940;3.998;2022-08-21T07:39:35;6.40;;;2.00;;
48945;SDS011;34999;50.940;3.998;2022-08-21T07:42:04;4.07;;;2.10;;
48945;SDS011;34999;50.940;3.998;2022-08-21T07:44:33;7.73;;;2.10;;
48945;SDS011;34999;50.940;3.998;2022-08-21T07:47:02;11.67;;;2.33;;
48945;SDS011;34999;50.940;3.998;2022-08-21T07:49:31;5.93;;;2.10;;
48945;SDS011;34999;50.940;3.998;2022-08-21T07:52:00;4.77;;;2.20;;
48945;SDS011;34999;50.940;3.998;2022-08-21T07:54:30;8.23;;;2.50;;
48945;SDS011;34999;50.940;3.998;2022-08-21T07:56:59;6.23;;;2.33;;
48945;SDS011;34999;50.940;3.998;2022-08-21T07:59:28;4.03;;;1.67;;
48945;SDS011;34999;50.940;3.998;2022-08-21T08:01:56;5.27;;;2.13;;
48945;SDS011;34999;50.940;3.998;2022-08-21T08:04:24;8.90;;;2.03;;
48945;SDS011;34999;50.940;3.998;2022-08-21T08:06:52;6.50;;;1.73;;
48945;SDS011;34999;50.940;3.998;2022-08-21T08:09:22;9.83;;;2.60;;
48945;SDS011;34999;50.940;3.998;2022-08-21T08:19:14;10.90;;;2.20;;
48945;SDS011;34999;50.940;3.998;2022-08-21T08:21:43;6.97;;;2.03;;
48945;SDS011;34999;50.940;3.998;2022-08-21T08:24:11;4.70;;;1.60;;
48945;SDS011;34999;50.940;3.998;2022-08-21T08:26:46;8.00;;;2.10;;
48945;SDS011;34999;50.940;3.998;2022-08-21T08:29:19;3.33;;;1.97;;
48945;SDS011;34999;50.940;3.998;2022-08-21T08:31:48;5.53;;;2.03;;
48945;SDS011;34999;50.940;3.998;2022-08-21T08:34:17;7.93;;;2.20;;
48945;SDS011;34999;50.940;3.998;2022-08-21T08:36:50;9.40;;;2.30;;
48945;SDS011;34999;50.940;3.998;2022-08-21T08:39:20;5.10;;;1.90;;
48945;SDS011;34999;50.940;3.998;2022-08-21T08:41:56;5.43;;;1.83;;
48945;SDS011;34999;50.940;3.998;2022-08-21T08:44:52;6.03;;;2.03;;
48945;SDS011;34999;50.940;3.998;2022-08-21T08:47:25;4.97;;;2.00;;
48945;SDS011;34999;50.940;3.998;2022-08-21T08:50:00;8.50;;;2.37;;
48945;SDS011;34999;50.940;3.998;2022-08-21T08:52:32;9.17;;;2.47;;
48945;SDS011;34999;50.940;3.998;2022-08-21T08:55:03;7.70;;;2.03;;
48945;SDS011;34999;50.940;3.998;2022-08-21T09:02:18;7.23;;;2.20;;
48945;SDS011;34999;50.940;3.998;2022-08-21T09:04:47;7.07;;;2.33;;
48945;SDS011;34999;50.940;3.998;2022-08-21T09:07:19;5.67;;;2.10;;
48945;SDS011;34999;50.940;3.998;2022-08-21T09:10:04;7.57;;;2.30;;
48945;SDS011;34999;50.940;3.998;2022-08-21T09:12:42;7.07;;;1.83;;
48945;SDS011;34999;50.940;3.998;2022-08-21T09:15:22;7.17;;;2.10;;
48945;SDS011;34999;50.940;3.998;2022-08-21T09:18:09;5.60;;;2.00;;
48945;SDS011;34999;50.940;3.998;2022-08-21T09:21:02;8.87;;;2.10;;
48945;SDS011;34999;50.940;3.998;2022-08-21T09:23:40;5.00;;;2.20;;
48945;SDS011;34999;50.940;3.998;2022-08-21T09:26:15;10.87;;;2.27;;
48945;SDS011;34999;50.940;3.998;2022-08-21T09:28:45;6.20;;;1.90;;
48945;SDS011;34999;50.940;3.998;2022-08-21T09:31:21;10.43;;;2.90;;
48945;SDS011;34999;50.940;3.998;2022-08-21T09:33:58;5.60;;;2.13;;
48945;SDS011;34999;50.940;3.998;2022-08-21T09:36:30;6.30;;;3.00;;
48945;SDS011;34999;50.940;3.998;2022-08-21T09:39:03;8.80;;;2.60;;
48945;SDS011;34999;50.940;3.998;2022-08-21T09:41:33;5.00;;;1.97;;
48945;SDS011;34999;50.940;3.998;2022-08-21T09:44:03;9.60;;;2.37;;
48945;SDS011;34999;50.940;3.998;2022-08-21T09:46:34;8.00;;;2.50;;
48945;SDS011;34999;50.940;3.998;2022-08-21T09:49:04;9.93;;;2.40;;
48945;SDS011;34999;50.940;3.998;2022-08-21T09:51:48;4.27;;;1.80;;
48945;SDS011;34999;50.940;3.998;2022-08-21T09:54:20;7.17;;;2.33;;
48945;SDS011;34999;50.940;3.998;2022-08-21T09:56:56;10.00;;;2.20;;
48945;SDS011;34999;50.940;3.998;2022-08-21T09:59:46;7.85;;;2.15;;
48945;SDS011;34999;50.940;3.998;2022-08-21T10:02:20;7.95;;;2.10;;
48945;SDS011;34999;50.940;3.998;2022-08-21T10:05:30;7.80;;;2.40;;
48945;SDS011;34999;50.940;3.998;2022-08-21T10:07:59;10.30;;;2.23;;
48945;SDS011;34999;50.940;3.998;2022-08-21T10:10:30;6.87;;;2.53;;
48945;SDS011;34999;50.940;3.998;2022-08-21T10:13:05;8.73;;;2.17;;
48945;SDS011;34999;50.940;3.998;2022-08-21T10:15:41;9.80;;;2.40;;
48945;SDS011;34999;50.940;3.998;2022-08-21T10:18:17;6.10;;;2.20;;
48945;SDS011;34999;50.940;3.998;2022-08-21T10:20:54;9.03;;;2.30;;
48945;SDS011;34999;50.940;3.998;2022-08-21T10:23:34;8.87;;;2.53;;
48945;SDS011;34999;50.940;3.998;2022-08-21T10:26:11;9.38;;;2.60;;
48945;SDS011;34999;50.940;3.998;2022-08-21T10:28:54;7.00;;;2.00;;
48945;SDS011;34999;50.940;3.998;2022-08-21T10:31:32;5.43;;;2.35;;
48945;SDS011;34999;50.940;3.998;2022-08-21T10:34:13;5.35;;;2.17;;
48945;SDS011;34999;50.940;3.998;2022-08-21T10:36:57;9.10;;;1.98;;
48945;SDS011;34999;50.940;3.998;2022-08-21T10:39:36;7.45;;;2.30;;
48945;SDS011;34999;50.940;3.998;2022-08-21T10:42:16;7.20;;;2.37;;
48945;SDS011;34999;50.940;3.998;2022-08-21T10:44:57;5.90;;;2.23;;
48945;SDS011;34999;50.940;3.998;2022-08-21T10:47:37;8.67;;;2.60;;
48945;SDS011;34999;50.940;3.998;2022-08-21T10:50:11;10.47;;;2.33;;
48945;SDS011;34999;50.940;3.998;2022-08-21T10:52:50;7.03;;;2.60;;
48945;SDS011;34999;50.940;3.998;2022-08-21T10:55:31;4.25;;;2.20;;
48945;SDS011;34999;50.940;3.998;2022-08-21T10:58:04;5.13;;;2.15;;
48945;SDS011;34999;50.940;3.998;2022-08-21T11:00:39;12.60;;;2.40;;
48945;SDS011;34999;50.940;3.998;2022-08-21T11:03:12;8.83;;;2.80;;
48945;SDS011;34999;50.940;3.998;2022-08-21T11:05:45;4.27;;;2.10;;
48945;SDS011;34999;50.940;3.998;2022-08-21T11:08:21;6.47;;;2.40;;
48945;SDS011;34999;50.940;3.998;2022-08-21T11:10:55;9.87;;;2.40;;
48945;SDS011;34999;50.940;3.998;2022-08-21T11:13:35;10.93;;;2.50;;
48945;SDS011;34999;50.940;3.998;2022-08-21T11:16:12;4.87;;;1.80;;
48945;SDS011;34999;50.940;3.998;2022-08-21T11:18:47;10.47;;;2.70;;
48945;SDS011;34999;50.940;3.998;2022-08-21T11:21:36;7.03;;;2.50;;
48945;SDS011;34999;50.940;3.998;2022-08-21T11:24:15;4.57;;;2.43;;
48945;SDS011;34999;50.940;3.998;2022-08-21T11:39:12;8.23;;;2.40;;
48945;SDS011;34999;50.940;3.998;2022-08-21T11:42:28;5.47;;;2.33;;
48945;SDS011;34999;50.940;3.998;2022-08-21T11:45:43;5.72;;;2.15;;
48945;SDS011;34999;50.940;3.998;2022-08-21T11:49:05;5.90;;;2.20;;
48945;SDS011;34999;50.940;3.998;2022-08-21T11:52:22;6.72;;;2.33;;
48945;SDS011;34999;50.940;3.998;2022-08-21T11:55:36;9.07;;;2.25;;
48945;SDS011;34999;50.940;3.998;2022-08-21T11:58:47;8.70;;;2.50;;
48945;SDS011;34999;50.940;3.998;2022-08-21T12:01:58;7.10;;;2.17;;
48945;SDS011;34999;50.940;3.998;2022-08-21T12:18:05;6.33;;;2.37;;
48945;SDS011;34999;50.940;3.998;2022-08-21T12:20:57;8.10;;;2.20;;
48945;SDS011;34999;50.940;3.998;2022-08-21T12:23:29;9.03;;;2.23;;
48945;SDS011;34999;50.940;3.998;2022-08-21T12:26:00;7.10;;;2.17;;
48945;SDS011;34999;50.940;3.998;2022-08-21T12:28:45;7.30;;;2.33;;
48945;SDS011;34999;50.940;3.998;2022-08-21T12:31:18;6.37;;;2.37;;
48945;SDS011;34999;50.940;3.998;2022-08-21T12:33:53;6.97;;;2.40;;
48945;SDS011;34999;50.940;3.998;2022-08-21T12:36:26;8.47;;;2.40;;
48945;SDS011;34999;50.940;3.998;2022-08-21T12:39:11;7.47;;;2.70;;
48945;SDS011;34999;50.940;3.998;2022-08-21T12:44:53;5.43;;;2.10;;
48945;SDS011;34999;50.940;3.998;2022-08-21T12:47:25;7.40;;;2.33;;
48945;SDS011;34999;50.940;3.998;2022-08-21T12:50:04;9.33;;;2.70;;
48945;SDS011;34999;50.940;3.998;2022-08-21T12:52:38;9.57;;;2.63;;
48945;SDS011;34999;50.940;3.998;2022-08-21T12:55:10;7.87;;;2.37;;
48945;SDS011;34999;50.940;3.998;2022-08-21T12:57:42;4.90;;;2.13;;
48945;SDS011;34999;50.940;3.998;2022-08-21T13:00:11;10.63;;;2.30;;
48945;SDS011;34999;50.940;3.998;2022-08-21T13:02:43;7.90;;;2.40;;
48945;SDS011;34999;50.940;3.998;2022-08-21T13:05:19;7.27;;;2.53;;
48945;SDS011;34999;50.940;3.998;2022-08-21T13:07:55;7.00;;;2.13;;
48945;SDS011;34999;50.940;3.998;2022-08-21T13:10:25;5.60;;;2.30;;
48945;SDS011;34999;50.940;3.998;2022-08-21T13:12:55;9.70;;;2.17;;
48945;SDS011;34999;50.940;3.998;2022-08-21T13:15:27;6.10;;;2.17;;
48945;SDS011;34999;50.940;3.998;2022-08-21T13:17:59;7.47;;;2.47;;
48945;SDS011;34999;50.940;3.998;2022-08-21T13:20:31;8.83;;;2.50;;
48945;SDS011;34999;50.940;3.998;2022-08-21T13:23:02;7.57;;;2.20;;
48945;SDS011;34999;50.940;3.998;2022-08-21T13:25:46;6.13;;;2.17;;
48945;SDS011;34999;50.940;3.998;2022-08-21T13:28:16;8.27;;;2.30;;
48945;SDS011;34999;50.940;3.998;2022-08-21T13:30:44;8.37;;;2.07;;
48945;SDS011;34999;50.940;3.998;2022-08-21T13:33:17;13.10;;;2.67;;
48945;SDS011;34999;50.940;3.998;2022-08-21T13:36:05;8.30;;;2.23;;
48945;SDS011;34999;50.940;3.998;2022-08-21T13:38:39;8.60;;;2.50;;
48945;SDS011;34999;50.940;3.998;2022-08-21T13:41:11;9.67;;;2.80;;
48945;SDS011;34999;50.940;3.998;2022-08-21T13:43:49;4.53;;;2.07;;
48945;SDS011;34999;50.940;3.998;2022-08-21T13:46:24;7.20;;;2.40;;
48945;SDS011;34999;50.940;3.998;2022-08-21T13:48:54;5.03;;;1.97;;
48945;SDS011;34999;50.940;3.998;2022-08-21T13:51:25;6.60;;;2.20;;
48945;SDS011;34999;50.940;3.998;2022-08-21T13:53:53;5.87;;;1.93;;
48945;SDS011;34999;50.940;3.998;2022-08-21T13:56:22;7.17;;;2.40;;
48945;SDS011;34999;50.940;3.998;2022-08-21T13:58:52;9.33;;;2.50;;
48945;SDS011;34999;50.940;3.998;2022-08-21T14:01:22;6.80;;;2.47;;
48945;SDS011;34999;50.940;3.998;2022-08-21T14:03:54;4.27;;;2.30;;
48945;SDS011;34999;50.940;3.998;2022-08-21T14:06:27;4.00;;;2.07;;
48945;SDS011;34999;50.940;3.998;2022-08-21T14:09:08;5.77;;;2.30;;
48945;SDS011;34999;50.940;3.998;2022-08-21T14:11:38;5.97;;;2.33;;
48945;SDS011;34999;50.940;3.998;2022-08-21T14:14:13;10.00;;;2.73;;
48945;SDS011;34999;50.940;3.998;2022-08-21T14:16:52;8.93;;;2.37;;
48945;SDS011;34999;50.940;3.998;2022-08-21T14:19:23;6.10;;;2.23;;
48945;SDS011;34999;50.940;3.998;2022-08-21T14:21:54;8.00;;;2.67;;
48945;SDS011;34999;50.940;3.998;2022-08-21T14:24:26;9.63;;;2.47;;
48945;SDS011;34999;50.940;3.998;2022-08-21T14:26:57;8.27;;;2.63;;
48945;SDS011;34999;50.940;3.998;2022-08-21T14:29:32;6.93;;;2.70;;
48945;SDS011;34999;50.940;3.998;2022-08-21T14:32:08;6.03;;;2.50;;
48945;SDS011;34999;50.940;3.998;2022-08-21T14:34:50;7.13;;;2.33;;
48945;SDS011;34999;50.940;3.998;2022-08-21T14:37:24;6.37;;;2.47;;
48945;SDS011;34999;50.940;3.998;2022-08-21T14:39:53;7.73;;;2.50;;
48945;SDS011;34999;50.940;3.998;2022-08-21T14:42:21;8.60;;;2.27;;
48945;SDS011;34999;50.940;3.998;2022-08-21T14:44:50;6.43;;;2.43;;
48945;SDS011;34999;50.940;3.998;2022-08-21T14:47:27;6.73;;;2.27;;
48945;SDS011;34999;50.940;3.998;2022-08-21T14:49:56;7.73;;;2.50;;
48945;SDS011;34999;50.940;3.998;2022-08-21T14:52:26;7.60;;;2.27;;
48945;SDS011;34999;50.940;3.998;2022-08-21T14:54:55;9.20;;;2.23;;
48945;SDS011;34999;50.940;3.998;2022-08-21T14:57:23;4.07;;;2.30;;
48945;SDS011;34999;50.940;3.998;2022-08-21T14:59:54;6.50;;;2.20;;
48945;SDS011;34999;50.940;3.998;2022-08-21T15:02:28;9.40;;;2.27;;
48945;SDS011;34999;50.940;3.998;2022-08-21T15:04:57;9.00;;;2.00;;
48945;SDS011;34999;50.940;3.998;2022-08-21T15:07:26;5.43;;;2.40;;
48945;SDS011;34999;50.940;3.998;2022-08-21T15:09:55;5.27;;;2.07;;
48945;SDS011;34999;50.940;3.998;2022-08-21T15:12:26;9.47;;;2.67;;
48945;SDS011;34999;50.940;3.998;2022-08-21T15:14:55;9.87;;;2.40;;
48945;SDS011;34999;50.940;3.998;2022-08-21T15:17:23;5.50;;;2.30;;
48945;SDS011;34999;50.940;3.998;2022-08-21T15:19:52;5.53;;;2.40;;
48945;SDS011;34999;50.940;3.998;2022-08-21T15:22:20;7.70;;;2.80;;
48945;SDS011;34999;50.940;3.998;2022-08-21T15:24:55;4.37;;;2.20;;
48945;SDS011;34999;50.940;3.998;2022-08-21T15:27:23;7.20;;;2.27;;
48945;SDS011;34999;50.940;3.998;2022-08-21T15:29:51;6.50;;;2.53;;
48945;SDS011;34999;50.940;3.998;2022-08-21T15:32:21;7.03;;;2.47;;
48945;SDS011;34999;50.940;3.998;2022-08-21T15:34:53;9.17;;;2.17;;
48945;SDS011;34999;50.940;3.998;2022-08-21T15:37:23;4.17;;;1.97;;
48945;SDS011;34999;50.940;3.998;2022-08-21T15:39:52;5.70;;;2.50;;
48945;SDS011;34999;50.940;3.998;2022-08-21T15:42:22;5.73;;;2.50;;
48945;SDS011;34999;50.940;3.998;2022-08-21T15:44:54;7.30;;;2.20;;
48945;SDS011;34999;50.940;3.998;2022-08-21T15:47:27;6.10;;;2.27;;
48945;SDS011;34999;50.940;3.998;2022-08-21T15:49:59;6.97;;;2.30;;
48945;SDS011;34999;50.940;3.998;2022-08-21T15:52:28;4.57;;;2.00;;
48945;SDS011;34999;50.940;3.998;2022-08-21T15:54:56;7.50;;;2.47;;
48945;SDS011;34999;50.940;3.998;2022-08-21T15:57:26;6.60;;;2.30;;
48945;SDS011;34999;50.940;3.998;2022-08-21T15:59:56;10.50;;;2.67;;
48945;SDS011;34999;50.940;3.998;2022-08-21T16:02:31;8.63;;;2.27;;
48945;SDS011;34999;50.940;3.998;2022-08-21T16:05:19;6.37;;;2.87;;
48945;SDS011;34999;50.940;3.998;2022-08-21T16:07:49;5.53;;;2.47;;
48945;SDS011;34999;50.940;3.998;2022-08-21T16:10:19;9.37;;;2.40;;
48945;SDS011;34999;50.940;3.998;2022-08-21T16:12:57;5.37;;;2.50;;
48945;SDS011;34999;50.940;3.998;2022-08-21T16:15:29;5.80;;;2.33;;
48945;SDS011;34999;50.940;3.998;2022-08-21T16:17:57;6.57;;;2.30;;
48945;SDS011;34999;50.940;3.998;2022-08-21T16:20:27;10.93;;;3.10;;
48945;SDS011;34999;50.940;3.998;2022-08-21T16:22:57;6.20;;;2.57;;
48945;SDS011;34999;50.940;3.998;2022-08-21T16:25:27;10.67;;;2.33;;
48945;SDS011;34999;50.940;3.998;2022-08-21T16:28:00;5.07;;;2.20;;
48945;SDS011;34999;50.940;3.998;2022-08-21T16:30:32;5.03;;;2.13;;
48945;SDS011;34999;50.940;3.998;2022-08-21T16:33:02;9.03;;;2.60;;
48945;SDS011;34999;50.940;3.998;2022-08-21T16:35:32;13.93;;;3.70;;
48945;SDS011;34999;50.940;3.998;2022-08-21T16:38:02;8.00;;;2.90;;
48945;SDS011;34999;50.940;3.998;2022-08-21T16:40:30;4.70;;;1.93;;
48945;SDS011;34999;50.940;3.998;2022-08-21T16:42:58;8.40;;;2.67;;